createdAt,value
2023-03-06T00:02:04.526Z,981.9
2023-03-06T00:07:24.114Z,981.8
2023-03-06T00:12:43.144Z,981.9
2023-03-06T00:18:02.106Z,981.8
2023-03-06T00:23:20.967Z,981.8
2023-03-06T00:28:40.358Z,981.8
2023-03-06T00:33:59.887Z,981.6
2023-03-06T00:39:19.290Z,981.7
2023-03-06T00:44:39.081Z,981.5
2023-03-06T00:49:58.115Z,981.5
2023-03-06T00:55:17.427Z,981.5
2023-03-06T01:00:37.269Z,981.4
2023-03-06T01:05:56.217Z,981.3
2023-03-06T01:11:16.059Z,981.2
2023-03-06T01:16:34.823Z,981.1
2023-03-06T01:23:08.964Z,981.1
2023-03-06T01:27:14.033Z,981.1
2023-03-06T01:32:31.818Z,981
2023-03-06T01:37:50.803Z,980.9
2023-03-06T01:43:10.044Z,980.9
2023-03-06T01:48:29.828Z,980.9
2023-03-06T01:53:49.435Z,980.8
2023-03-06T01:59:08.417Z,980.7
2023-03-06T02:04:27.797Z,980.7
2023-03-06T02:09:47.524Z,980.6
2023-03-06T02:15:06.625Z,980.5
2023-03-06T02:20:25.486Z,980.4
2023-03-06T02:25:44.533Z,980.4
2023-03-06T02:31:04.366Z,980.3
2023-03-06T02:36:23.398Z,980.3
2023-03-06T02:41:42.693Z,980.2
2023-03-06T02:47:01.975Z,980.1
2023-03-06T02:52:21.738Z,980.1
2023-03-06T02:57:40.781Z,980.1
2023-03-06T03:04:15.293Z,980.1
2023-03-06T03:08:20.734Z,980.1
2023-03-06T03:13:39.355Z,980.1
2023-03-06T03:18:58.531Z,980
2023-03-06T03:24:17.876Z,979.9
2023-03-06T03:29:37.329Z,979.9
2023-03-06T03:34:57.636Z,979.9
2023-03-06T03:40:15.655Z,979.8
2023-03-06T03:45:35.313Z,979.7
2023-03-06T03:50:54.164Z,979.8
2023-03-06T03:56:13.687Z,979.7
2023-03-06T04:01:33.304Z,979.7
2023-03-06T04:06:52.537Z,979.6
2023-03-06T04:12:12.070Z,979.5
2023-03-06T04:17:30.853Z,979.4
2023-03-06T04:22:50.145Z,979.4
2023-03-06T04:28:09.319Z,979.4
2023-03-06T04:33:29.116Z,979.4
2023-03-06T04:38:48.273Z,979.3
2023-03-06T04:44:07.158Z,979.3
2023-03-06T04:49:26.415Z,979.3
2023-03-06T04:54:45.885Z,979.2
2023-03-06T05:00:05.132Z,979.2
2023-03-06T05:05:24.423Z,979.1
2023-03-06T05:10:42.678Z,979.1
2023-03-06T05:16:01.632Z,979
2023-03-06T05:21:21.223Z,979
2023-03-06T05:26:40.083Z,978.9
2023-03-06T05:31:59.234Z,978.8
2023-03-06T05:37:18.611Z,978.9
2023-03-06T05:42:38.296Z,978.8
2023-03-06T05:47:57.965Z,978.9
2023-03-06T05:53:17.336Z,978.9
2023-03-06T05:58:36.975Z,978.8
2023-03-06T06:03:56.786Z,978.9
2023-03-06T06:09:15.790Z,979
2023-03-06T06:14:34.733Z,979
2023-03-06T06:19:53.604Z,978.9
2023-03-06T06:25:13.359Z,978.9
2023-03-06T06:30:32.228Z,979
2023-03-06T06:35:51.175Z,978.9
2023-03-06T06:41:35.893Z,978.9
2023-03-06T06:47:18.061Z,978.9
2023-03-06T06:51:49.336Z,978.9
2023-03-06T06:57:08.457Z,979
2023-03-06T07:02:28.185Z,978.9
2023-03-06T07:07:47.679Z,978.9
2023-03-06T07:13:07.323Z,978.9
2023-03-06T07:18:25.849Z,979
2023-03-06T07:23:45.031Z,979
2023-03-06T07:29:03.873Z,979.1
2023-03-06T07:34:23.877Z,979
2023-03-06T07:39:42.852Z,979.1
2023-03-06T07:45:01.846Z,979
2023-03-06T07:50:20.650Z,979.1
2023-03-06T07:55:39.836Z,979.1
2023-03-06T08:00:58.829Z,979.1
2023-03-06T08:06:18.515Z,979.1
2023-03-06T08:11:37.900Z,979.1
2023-03-06T08:16:57.378Z,979.2
2023-03-06T08:22:16.753Z,979.2
2023-03-06T08:27:36.081Z,979.2
2023-03-06T08:32:55.674Z,979.2
2023-03-06T08:38:14.096Z,979.3
2023-03-06T08:43:32.793Z,979.3
2023-03-06T08:48:52.506Z,979.3
2023-03-06T08:54:11.756Z,979.2
2023-03-06T08:59:31.344Z,979.3
2023-03-06T09:04:50.643Z,979.3
2023-03-06T09:10:11.078Z,979.3
2023-03-06T09:15:30.759Z,979.3
2023-03-06T09:20:49.942Z,979.3
2023-03-06T09:26:08.381Z,979.3
2023-03-06T09:31:27.968Z,979.3
2023-03-06T09:36:56.283Z,979.3
2023-03-06T09:42:05.895Z,979.4
2023-03-06T09:47:24.679Z,979.3
2023-03-06T09:52:44.019Z,979.3
2023-03-06T09:58:04.563Z,979.3
2023-03-06T10:03:22.915Z,979.4
2023-03-06T10:08:42.133Z,979.3
2023-03-06T10:14:01.284Z,979.3
2023-03-06T10:20:35.527Z,979.2
2023-03-06T10:24:40.602Z,979.3
2023-03-06T10:30:03.015Z,979.4
2023-03-06T10:35:18.691Z,979.3
2023-03-06T10:40:37.968Z,979.3
2023-03-06T10:45:57.387Z,979.3
2023-03-06T10:51:18.403Z,979.2
2023-03-06T10:56:35.836Z,979.2
2023-03-06T11:01:55.057Z,979.2
2023-03-06T11:07:14.462Z,979.2
2023-03-06T11:12:33.549Z,979.2
2023-03-06T11:17:52.765Z,979.2
2023-03-06T11:23:12.356Z,979.2
2023-03-06T11:28:31.109Z,979.1
2023-03-06T11:33:50.507Z,979
2023-03-06T11:39:09.632Z,979
2023-03-06T11:44:28.559Z,978.8
2023-03-06T11:49:46.961Z,978.9
2023-03-06T11:55:06.002Z,978.8
2023-03-06T12:00:25.851Z,978.8
2023-03-06T12:05:44.657Z,978.7
2023-03-06T12:11:03.952Z,978.7
2023-03-06T12:16:23.246Z,978.7
2023-03-06T12:21:42.517Z,978.7
2023-03-06T12:27:01.545Z,978.6
2023-03-06T12:32:21.289Z,978.6
2023-03-06T12:38:55.311Z,978.6
2023-03-06T12:43:00.154Z,978.5
2023-03-06T12:48:19.374Z,978.5
2023-03-06T12:53:39.108Z,978.4
2023-03-06T12:58:58.822Z,978.4
2023-03-06T13:04:17.652Z,978.4
2023-03-06T13:09:36.667Z,978.4
2023-03-06T13:14:55.982Z,978.3
2023-03-06T13:20:15.231Z,978.3
2023-03-06T13:25:34.482Z,978.4
2023-03-06T13:30:54.253Z,978.4
2023-03-06T13:36:13.333Z,978.3
2023-03-06T13:41:32.818Z,978.4
2023-03-06T13:46:51.844Z,978.4
2023-03-06T13:52:10.934Z,978.4
2023-03-06T13:57:30.233Z,978.4
2023-03-06T14:02:49.718Z,978.4
2023-03-06T14:08:09.039Z,978.4
2023-03-06T14:13:35.013Z,978.3
2023-03-06T14:18:48.492Z,978.3
2023-03-06T14:24:07.298Z,978.3
2023-03-06T14:29:26.779Z,978.2
2023-03-06T14:34:45.986Z,978.3
2023-03-06T14:40:05.206Z,978.1
2023-03-06T14:45:23.342Z,978.1
2023-03-06T14:50:42.871Z,978.1
2023-03-06T14:56:03.960Z,978.1
2023-03-06T15:01:21.238Z,978.1
2023-03-06T15:06:40.762Z,978.2
2023-03-06T15:12:01.208Z,978.1
2023-03-06T15:17:20.185Z,978.2
2023-03-06T15:22:39.956Z,978.1
2023-03-06T15:27:59.668Z,978.1
2023-03-06T15:33:18.664Z,978.2
2023-03-06T15:38:38.814Z,978.1
2023-03-06T15:43:57.284Z,978.2
2023-03-06T15:49:16.943Z,978.2
2023-03-06T15:54:36.320Z,978.3
2023-03-06T15:59:55.190Z,978.2
2023-03-06T16:05:13.767Z,978.2
2023-03-06T16:10:33.172Z,978.2
2023-03-06T16:15:52.839Z,978.2
2023-03-06T16:21:37.974Z,978.2
2023-03-06T16:26:57.334Z,978.2
2023-03-06T16:32:16.451Z,978.2
2023-03-06T16:37:36.083Z,978.1
2023-03-06T16:42:55.409Z,978.2
2023-03-06T16:48:14.673Z,978.3
2023-03-06T16:53:33.907Z,978.3
2023-03-06T16:58:52.934Z,978.3
2023-03-06T17:04:12.437Z,978.3
2023-03-06T17:09:32.155Z,978.3
2023-03-06T17:14:51.958Z,978.4
2023-03-06T17:20:10.858Z,978.5
2023-03-06T17:25:30.457Z,978.5
2023-03-06T17:30:50.804Z,978.6
2023-03-06T17:36:08.961Z,978.6
2023-03-06T17:41:28.026Z,978.6
2023-03-06T17:46:47.653Z,978.7
2023-03-06T17:52:06.609Z,978.6
2023-03-06T17:57:26.190Z,978.7
2023-03-06T18:02:45.314Z,978.6
2023-03-06T18:08:04.067Z,978.7
2023-03-06T18:13:23.141Z,978.6
2023-03-06T18:18:42.083Z,978.6
2023-03-06T18:24:01.798Z,978.6
2023-03-06T18:29:20.925Z,978.6
2023-03-06T18:34:40.348Z,978.6
2023-03-06T18:39:59.934Z,978.6
2023-03-06T18:45:19.254Z,978.6
2023-03-06T18:50:39.187Z,978.5
2023-03-06T18:55:58.706Z,978.6
2023-03-06T19:01:17.585Z,978.6
2023-03-06T19:06:37.028Z,978.5
2023-03-06T19:11:55.995Z,978.5
2023-03-06T19:17:15.600Z,978.5
2023-03-06T19:22:35.112Z,978.5
2023-03-06T19:27:54.331Z,978.5
2023-03-06T19:33:13.892Z,978.5
2023-03-06T19:38:33.486Z,978.5
2023-03-06T19:43:52.642Z,978.6
2023-03-06T19:49:11.891Z,978.4
2023-03-06T19:54:32.520Z,978.4
2023-03-06T19:59:51.225Z,978.4
2023-03-06T20:05:10.065Z,978.4
2023-03-06T20:10:28.926Z,978.4
2023-03-06T20:15:47.836Z,978.4
2023-03-06T20:21:06.692Z,978.5
2023-03-06T20:26:26.463Z,978.4
2023-03-06T20:31:45.876Z,978.4
2023-03-06T20:37:04.856Z,978.4
2023-03-06T20:42:23.997Z,978.4
2023-03-06T20:47:43.750Z,978.4
2023-03-06T20:53:02.972Z,978.5
2023-03-06T20:58:22.430Z,978.4
2023-03-06T21:03:41.571Z,978.3
2023-03-06T21:09:01.199Z,978.3
2023-03-06T21:14:20.665Z,978.2
2023-03-06T21:19:39.741Z,978.2
2023-03-06T21:24:58.917Z,978.2
2023-03-06T21:30:18.012Z,978.1
2023-03-06T21:35:37.710Z,978.1
2023-03-06T21:40:57.272Z,978
2023-03-06T21:46:16.613Z,978
2023-03-06T21:51:36.029Z,978
2023-03-06T21:56:55.663Z,977.9
2023-03-06T22:02:14.450Z,977.9
2023-03-06T22:07:34.030Z,977.9
2023-03-06T22:12:53.192Z,977.8
2023-03-06T22:18:12.693Z,977.7
2023-03-06T22:23:32.328Z,977.7
2023-03-06T22:28:51.322Z,977.7
2023-03-06T22:34:10.194Z,977.6
2023-03-06T22:39:29.854Z,977.6
2023-03-06T22:44:48.978Z,977.5
2023-03-06T22:50:08.526Z,977.6
2023-03-06T22:55:28.133Z,977.5
2023-03-06T23:00:47.849Z,977.5
2023-03-06T23:06:07.376Z,977.5
2023-03-06T23:11:26.325Z,977.4
2023-03-06T23:16:45.842Z,977.4
2023-03-06T23:22:04.845Z,977.4
2023-03-06T23:27:24.042Z,977.4
2023-03-06T23:32:45.510Z,977.4
2023-03-06T23:38:02.413Z,977.4
2023-03-06T23:43:22.032Z,977.3
2023-03-06T23:48:40.934Z,977.3
2023-03-06T23:54:00.051Z,977.3
2023-03-06T23:59:18.893Z,977.1
